TAP1212 LPMA-LPPT
Flight info
| Callsign | TAP1212 |
|---|---|
| Flight time | N/A |
| Altitude | 40000 |
| Route | DEGUN DCT NARTA DCT ESUTI ESUTI1A/02 |
| Aircraft | A333/H-SDE3GHIJ2J3J5M1RVWXY/LB2D1 |
Departure
| Time | N/A |
|---|---|
| Airport | Cristiano Ronaldo International Airport (LPMA) |
Arrival
| Time | 2026-05-06 21:17 |
|---|---|
| Airport | Lisbon Humberto Delgado Airport (LPPT) |
| Time | Latitude | Longitude | Altitude | Speed | Heading |
|---|---|---|---|---|---|
| 2026-05-06 20:58 | 38.03591 | -9.88346 | 19188 ft | 315 kts | 77° |
| 2026-05-06 20:59 | 38.04577 | -9.85759 | 19157 ft | 336 kts | 50° |
| 2026-05-06 20:59 | 38.06378 | -9.83851 | 18504 ft | 342 kts | 23° |
| 2026-05-06 20:59 | 38.08662 | -9.83119 | 17696 ft | 341 kts | 358° |
| 2026-05-06 20:59 | 38.10931 | -9.83717 | 16990 ft | 336 kts | 330° |
| 2026-05-06 21:00 | 38.12835 | -9.85319 | 16701 ft | 322 kts | 322° |
| 2026-05-06 21:00 | 38.14858 | -9.86455 | 16385 ft | 320 kts | 347° |
| 2026-05-06 21:00 | 38.17060 | -9.86326 | 15811 ft | 318 kts | 14° |
| 2026-05-06 21:00 | 38.19003 | -9.85042 | 15112 ft | 314 kts | 36° |
| 2026-05-06 21:01 | 38.20502 | -9.83093 | 14435 ft | 302 kts | 50° |
| 2026-05-06 21:01 | 38.21762 | -9.81023 | 13731 ft | 291 kts | 51° |
| 2026-05-06 21:01 | 38.22978 | -9.79014 | 12929 ft | 283 kts | 50° |
| 2026-05-06 21:01 | 38.24186 | -9.77078 | 12166 ft | 276 kts | 50° |
| 2026-05-06 21:02 | 38.25382 | -9.75208 | 11410 ft | 269 kts | 50° |
| 2026-05-06 21:02 | 38.26563 | -9.73389 | 10674 ft | 264 kts | 50° |
| 2026-05-06 21:02 | 38.27731 | -9.71606 | 9946 ft | 259 kts | 50° |
| 2026-05-06 21:02 | 38.28864 | -9.69884 | 9182 ft | 256 kts | 50° |
| 2026-05-06 21:03 | 38.30023 | -9.68127 | 8457 ft | 261 kts | 50° |
| 2026-05-06 21:03 | 38.31179 | -9.66377 | 8089 ft | 252 kts | 50° |
| 2026-05-06 21:03 | 38.32270 | -9.64725 | 7996 ft | 234 kts | 50° |
| 2026-05-06 21:03 | 38.33278 | -9.63200 | 8020 ft | 214 kts | 50° |
| 2026-05-06 21:04 | 38.34222 | -9.61768 | 8022 ft | 214 kts | 50° |
| 2026-05-06 21:04 | 38.35199 | -9.60287 | 7999 ft | 224 kts | 50° |
| 2026-05-06 21:04 | 38.36211 | -9.58753 | 7999 ft | 227 kts | 50° |
| 2026-05-06 21:04 | 38.37231 | -9.57207 | 7994 ft | 228 kts | 50° |
| 2026-05-06 21:05 | 38.38255 | -9.55655 | 8005 ft | 228 kts | 50° |
| 2026-05-06 21:05 | 38.39271 | -9.54114 | 8014 ft | 226 kts | 50° |
| 2026-05-06 21:05 | 38.40273 | -9.52595 | 7805 ft | 221 kts | 50° |
| 2026-05-06 21:05 | 38.41266 | -9.51088 | 7372 ft | 223 kts | 50° |
| 2026-05-06 21:06 | 38.42266 | -9.49569 | 6922 ft | 225 kts | 50° |
| 2026-05-06 21:06 | 38.43274 | -9.48036 | 6549 ft | 225 kts | 50° |
| 2026-05-06 21:06 | 38.44263 | -9.46534 | 6235 ft | 222 kts | 50° |
| 2026-05-06 21:06 | 38.45256 | -9.45022 | 5822 ft | 223 kts | 50° |
| 2026-05-06 21:07 | 38.46252 | -9.43505 | 5451 ft | 222 kts | 50° |
| 2026-05-06 21:07 | 38.47234 | -9.42008 | 5152 ft | 218 kts | 49° |
| 2026-05-06 21:07 | 38.48204 | -9.40530 | 4854 ft | 216 kts | 47° |
| 2026-05-06 21:07 | 38.49161 | -9.39069 | 4537 ft | 213 kts | 47° |
| 2026-05-06 21:08 | 38.50103 | -9.37632 | 4227 ft | 209 kts | 46° |
| 2026-05-06 21:08 | 38.51010 | -9.36244 | 4063 ft | 197 kts | 45° |
| 2026-05-06 21:08 | 38.51857 | -9.34945 | 4007 ft | 183 kts | 45° |
| 2026-05-06 21:08 | 38.52635 | -9.33755 | 3994 ft | 167 kts | 47° |
| 2026-05-06 21:09 | 38.53353 | -9.32658 | 3996 ft | 157 kts | 43° |
| 2026-05-06 21:09 | 38.54047 | -9.31602 | 4000 ft | 153 kts | 43° |
| 2026-05-06 21:09 | 38.54734 | -9.30560 | 3990 ft | 154 kts | 46° |
| 2026-05-06 21:09 | 38.55421 | -9.29514 | 3995 ft | 153 kts | 46° |
| 2026-05-06 21:10 | 38.56074 | -9.28511 | 3999 ft | 144 kts | 43° |
| 2026-05-06 21:10 | 38.56706 | -9.27544 | 3997 ft | 140 kts | 44° |
| 2026-05-06 21:10 | 38.57332 | -9.26590 | 3995 ft | 139 kts | 46° |
| 2026-05-06 21:10 | 38.57953 | -9.25640 | 3993 ft | 139 kts | 43° |
| 2026-05-06 21:11 | 38.58577 | -9.24692 | 3994 ft | 140 kts | 43° |
| 2026-05-06 21:11 | 38.59291 | -9.23865 | 3987 ft | 137 kts | 31° |
| 2026-05-06 21:11 | 38.60101 | -9.23258 | 3923 ft | 134 kts | 22° |
| 2026-05-06 21:11 | 38.60944 | -9.22770 | 3749 ft | 134 kts | 18° |
| 2026-05-06 21:12 | 38.61804 | -9.22310 | 3559 ft | 134 kts | 18° |
| 2026-05-06 21:12 | 38.62669 | -9.21850 | 3359 ft | 134 kts | 18° |
| 2026-05-06 21:12 | 38.63515 | -9.21398 | 3168 ft | 131 kts | 19° |
| 2026-05-06 21:12 | 38.64341 | -9.20957 | 2986 ft | 125 kts | 18° |
| 2026-05-06 21:13 | 38.65129 | -9.20537 | 2831 ft | 120 kts | 18° |
| 2026-05-06 21:13 | 38.65885 | -9.20134 | 2679 ft | 113 kts | 18° |
| 2026-05-06 21:13 | 38.66605 | -9.19750 | 2528 ft | 112 kts | 18° |
| 2026-05-06 21:13 | 38.67332 | -9.19362 | 2381 ft | 114 kts | 17° |
| 2026-05-06 21:14 | 38.68056 | -9.18976 | 2207 ft | 114 kts | 17° |
| 2026-05-06 21:14 | 38.68784 | -9.18588 | 2074 ft | 113 kts | 17° |
| 2026-05-06 21:14 | 38.69501 | -9.18205 | 1906 ft | 113 kts | 17° |
| 2026-05-06 21:14 | 38.70230 | -9.17816 | 1758 ft | 113 kts | 17° |
| 2026-05-06 21:15 | 38.70947 | -9.17432 | 1552 ft | 112 kts | 18° |
| 2026-05-06 21:15 | 38.71664 | -9.17037 | 1367 ft | 113 kts | 18° |
| 2026-05-06 21:15 | 38.72388 | -9.16645 | 1228 ft | 112 kts | 17° |
| 2026-05-06 21:15 | 38.73098 | -9.16273 | 1063 ft | 112 kts | 17° |
| 2026-05-06 21:16 | 38.73813 | -9.15883 | 897 ft | 111 kts | 18° |
| 2026-05-06 21:16 | 38.74520 | -9.15500 | 732 ft | 111 kts | 21° |
| 2026-05-06 21:16 | 38.75238 | -9.15117 | 656 ft | 112 kts | 18° |
| 2026-05-06 21:16 | 38.75958 | -9.14747 | 517 ft | 110 kts | 16° |
| 2026-05-06 21:17 | 38.76658 | -9.14369 | 388 ft | 110 kts | 17° |
| 2026-05-06 21:17 | 38.77336 | -9.14024 | 367 ft | 87 kts | 20° |
| 2026-05-06 21:17 | 38.77716 | -9.13818 | 369 ft | 31 kts | 25° |
| 2026-05-06 21:17 | 38.77914 | -9.13712 | 374 ft | 32 kts | 22° |
| 2026-05-06 21:18 | 38.78113 | -9.13606 | 371 ft | 31 kts | 24° |
| 2026-05-06 21:18 | 38.78293 | -9.13460 | 375 ft | 30 kts | 43° |
| 2026-05-06 21:18 | 38.78373 | -9.13323 | 371 ft | 12 kts | 82° |
| 2026-05-06 21:18 | 38.78339 | -9.13270 | 368 ft | 5 kts | 178° |
| 2026-05-06 21:19 | 38.78286 | -9.13282 | 368 ft | 11 kts | 196° |
| 2026-05-06 21:19 | 38.78204 | -9.13324 | 366 ft | 15 kts | 202° |
| 2026-05-06 21:19 | 38.78090 | -9.13385 | 366 ft | 18 kts | 202° |
| 2026-05-06 21:19 | 38.77966 | -9.13451 | 368 ft | 20 kts | 202° |
| 2026-05-06 21:20 | 38.77829 | -9.13527 | 367 ft | 23 kts | 203° |
| 2026-05-06 21:20 | 38.77727 | -9.13583 | 366 ft | 25 kts | 203° |
| 2026-05-06 21:20 | 38.77526 | -9.13567 | 358 ft | 25 kts | 166° |
| 2026-05-06 21:20 | 38.77343 | -9.13515 | 357 ft | 29 kts | 168° |
| 2026-05-06 21:21 | 38.77166 | -9.13468 | 354 ft | 9 kts | 168° |
| 2026-05-06 21:21 | 38.77107 | -9.13484 | 357 ft | 9 kts | 222° |
| 2026-05-06 21:21 | 38.77049 | -9.13524 | 358 ft | 11 kts | 188° |
| 2026-05-06 21:21 | 38.77019 | -9.13523 | 356 ft | 0 kts | 182° |
| 2026-05-06 21:22 | 38.77014 | -9.13535 | 359 ft | 2 kts | 246° |
| 2026-05-06 21:22 | 38.77015 | -9.13591 | 356 ft | 7 kts | 264° |
| 2026-05-06 21:22 | 38.77012 | -9.13611 | 359 ft | 1 kts | 261° |
| 2026-05-06 21:22 | 38.77012 | -9.13618 | 360 ft | 0 kts | 261° |
| 2026-05-06 21:23 | 38.77011 | -9.13619 | 360 ft | 1 kts | 260° |
| 2026-05-06 21:23 | 38.77011 | -9.13622 | 360 ft | 0 kts | 260° |